createdAt,value
2018-10-21T00:03:57.689Z,16.23
2018-10-21T00:09:01.862Z,16.70
2018-10-21T00:14:06.010Z,16.57
2018-10-21T00:19:10.080Z,16.53
2018-10-21T00:24:14.093Z,16.53
2018-10-21T00:29:17.938Z,16.47
2018-10-21T00:34:22.105Z,16.63
2018-10-21T00:39:26.182Z,15.67
2018-10-21T00:44:30.262Z,15.47
2018-10-21T00:49:34.119Z,16.93
2018-10-21T00:54:38.186Z,16.33
2018-10-21T00:59:42.044Z,17.10
2018-10-21T01:04:46.122Z,17.13
2018-10-21T01:09:50.186Z,17.40
2018-10-21T01:14:54.251Z,16.23
2018-10-21T01:19:58.365Z,18.10
2018-10-21T01:25:02.497Z,17.87
2018-10-21T01:30:08.390Z,17.10
2018-10-21T01:35:12.509Z,16.45
2018-10-21T01:40:39.486Z,16.83
2018-10-21T01:45:43.638Z,16.35
2018-10-21T01:50:47.763Z,16.60
2018-10-21T01:55:51.901Z,16.50
2018-10-21T02:00:56.035Z,18.00
2018-10-21T02:06:00.141Z,16.33
2018-10-21T02:11:04.346Z,16.97
2018-10-21T02:16:08.409Z,16.73
2018-10-21T02:21:12.277Z,16.70
2018-10-21T02:26:16.424Z,16.50
2018-10-21T02:31:20.465Z,18.20
2018-10-21T02:36:24.538Z,17.50
2018-10-21T02:41:43.558Z,16.60
2018-10-21T02:46:48.575Z,17.30
2018-10-21T02:51:58.058Z,17.37
2018-10-21T02:57:02.311Z,17.60
2018-10-21T03:02:06.225Z,16.87
2018-10-21T03:07:10.386Z,17.17
2018-10-21T03:12:14.237Z,16.33
2018-10-21T03:17:18.111Z,17.80
2018-10-21T03:22:22.208Z,17.27
2018-10-21T03:27:26.287Z,17.90
2018-10-21T03:32:30.165Z,17.47
2018-10-21T03:37:33.997Z,16.57
2018-10-21T03:42:37.841Z,16.53
2018-10-21T03:47:41.953Z,17.47
2018-10-21T03:52:45.903Z,17.67
2018-10-21T03:57:50.645Z,16.80
2018-10-21T04:02:54.698Z,17.00
2018-10-21T04:07:58.518Z,17.40
2018-10-21T04:13:02.610Z,17.77
2018-10-21T04:18:06.720Z,16.67
2018-10-21T04:23:11.057Z,18.13
2018-10-21T04:28:15.221Z,17.10
2018-10-21T04:33:52.473Z,17.53
2018-10-21T04:40:17.126Z,18.87
2018-10-21T04:45:22.896Z,19.43
2018-10-21T04:50:26.734Z,18.67
2018-10-21T04:55:30.566Z,19.47
2018-10-21T05:00:34.389Z,19.47
2018-10-21T05:05:38.429Z,19.17
2018-10-21T05:10:42.472Z,19.03
2018-10-21T05:15:46.678Z,19.57
2018-10-21T05:20:50.766Z,19.37
2018-10-21T05:25:54.575Z,21.33
2018-10-21T05:30:58.387Z,20.60
2018-10-21T05:36:02.493Z,21.33
2018-10-21T05:41:06.332Z,19.53
2018-10-21T05:46:10.850Z,19.67
2018-10-21T05:51:14.854Z,21.10
2018-10-21T05:56:18.765Z,20.33
2018-10-21T06:01:22.581Z,21.13
2018-10-21T06:06:26.434Z,20.62
2018-10-21T06:11:30.477Z,20.73
2018-10-21T06:16:39.861Z,21.67
2018-10-21T06:21:43.931Z,19.03
2018-10-21T06:26:48.014Z,19.90
2018-10-21T06:31:51.827Z,20.23
2018-10-21T06:36:55.879Z,20.03
2018-10-21T06:41:59.684Z,18.50
2018-10-21T06:47:03.821Z,19.92
2018-10-21T06:52:07.875Z,18.82
2018-10-21T06:57:12.044Z,18.40
2018-10-21T07:02:16.215Z,16.87
2018-10-21T07:07:20.349Z,15.70
2018-10-21T07:12:24.566Z,15.83
2018-10-21T07:17:28.637Z,16.40
2018-10-21T07:22:32.745Z,16.13
2018-10-21T07:27:36.569Z,14.70
2018-10-21T07:32:41.486Z,13.70
2018-10-21T07:37:45.543Z,13.30
2018-10-21T07:42:49.647Z,12.53
2018-10-21T07:47:53.428Z,11.03
2018-10-21T07:52:57.246Z,9.80
2018-10-21T07:58:01.539Z,10.20
2018-10-21T08:03:05.962Z,10.40
2018-10-21T08:08:12.746Z,10.27
2018-10-21T08:13:17.966Z,10.03
2018-10-21T08:18:22.114Z,9.67
2018-10-21T08:23:26.163Z,9.70
2018-10-21T08:28:30.238Z,9.13
2018-10-21T08:33:34.446Z,9.10
2018-10-21T08:38:38.505Z,9.67
2018-10-21T08:43:42.342Z,9.97
2018-10-21T08:48:46.448Z,9.70
2018-10-21T08:53:50.290Z,9.87
2018-10-21T08:58:54.378Z,10.10
2018-10-21T09:03:58.238Z,10.03
2018-10-21T09:09:02.107Z,10.10
2018-10-21T09:14:05.965Z,10.43
2018-10-21T09:19:09.873Z,10.73
2018-10-21T09:24:13.846Z,10.63
2018-10-21T09:29:17.710Z,10.27
2018-10-21T09:34:21.914Z,10.27
2018-10-21T09:39:26.507Z,10.40
2018-10-21T09:44:30.329Z,9.53
2018-10-21T09:49:34.386Z,11.13
2018-10-21T09:54:38.434Z,10.30
2018-10-21T09:59:42.326Z,10.30
2018-10-21T10:04:46.239Z,9.97
2018-10-21T10:09:50.241Z,9.70
2018-10-21T10:14:54.306Z,10.63
2018-10-21T10:19:58.127Z,10.50
2018-10-21T10:25:02.392Z,10.67
2018-10-21T10:30:08.434Z,10.33
2018-10-21T10:35:13.410Z,11.03
2018-10-21T10:40:17.324Z,10.53
2018-10-21T10:45:21.409Z,10.57
2018-10-21T10:50:25.486Z,10.17
2018-10-21T10:55:47.222Z,9.47
2018-10-21T11:00:51.184Z,10.97
2018-10-21T11:05:55.379Z,9.37
2018-10-21T11:12:02.718Z,9.93
2018-10-21T11:17:06.628Z,10.10
2018-10-21T11:22:10.754Z,10.57
2018-10-21T11:27:15.622Z,9.17
2018-10-21T11:32:19.716Z,9.83
2018-10-21T11:37:23.659Z,9.40
2018-10-21T11:42:27.363Z,8.70
2018-10-21T11:47:31.366Z,9.20
2018-10-21T11:52:35.287Z,8.20
2018-10-21T11:57:39.099Z,9.00
2018-10-21T12:02:42.910Z,7.30
2018-10-21T12:07:47.013Z,7.00
2018-10-21T12:12:50.853Z,7.10
2018-10-21T12:17:55.011Z,5.93
2018-10-21T12:22:58.842Z,5.67
2018-10-21T12:28:02.899Z,5.93
2018-10-21T12:33:06.960Z,6.13
2018-10-21T12:38:10.807Z,5.27
2018-10-21T12:43:14.851Z,5.37
2018-10-21T12:48:18.652Z,4.30
2018-10-21T12:53:22.466Z,3.60
2018-10-21T12:58:26.273Z,3.77
2018-10-21T13:03:30.128Z,3.40
2018-10-21T13:08:34.178Z,3.13
2018-10-21T13:13:38.209Z,4.60
2018-10-21T13:18:42.279Z,37.87
2018-10-21T13:23:46.163Z,4.50
2018-10-21T13:28:50.080Z,8.43
2018-10-21T13:33:53.841Z,2.00
2018-10-21T13:38:57.638Z,2.07
2018-10-21T13:44:01.686Z,1.80
2018-10-21T13:49:05.825Z,2.77
2018-10-21T13:54:09.843Z,2.70
2018-10-21T13:59:13.997Z,3.10
2018-10-21T14:04:17.877Z,2.63
2018-10-21T14:09:21.893Z,2.60
2018-10-21T14:14:25.963Z,2.50
2018-10-21T14:19:30.006Z,2.37
2018-10-21T14:24:34.147Z,2.50
2018-10-21T14:29:37.914Z,2.30
2018-10-21T14:34:41.718Z,2.30
2018-10-21T14:39:45.554Z,2.17
2018-10-21T14:44:49.354Z,2.30
2018-10-21T14:49:53.434Z,2.47
2018-10-21T14:54:57.541Z,2.37
2018-10-21T15:00:01.403Z,2.50
2018-10-21T15:05:08.578Z,2.67
2018-10-21T15:10:12.671Z,2.37
2018-10-21T15:15:16.465Z,2.20
2018-10-21T15:20:20.557Z,2.17
2018-10-21T15:25:24.700Z,2.20
2018-10-21T15:30:28.746Z,2.40
2018-10-21T15:35:32.822Z,2.30
2018-10-21T15:40:36.654Z,2.57
2018-10-21T15:45:40.759Z,2.53
2018-10-21T15:50:44.608Z,2.70
2018-10-21T15:55:48.486Z,2.40
2018-10-21T16:00:52.321Z,2.57
2018-10-21T16:05:59.356Z,2.57
2018-10-21T16:11:03.658Z,2.53
2018-10-21T16:16:07.807Z,2.70
2018-10-21T16:21:11.797Z,3.03
2018-10-21T16:26:15.602Z,2.63
2018-10-21T16:31:19.689Z,2.70
2018-10-21T16:36:27.419Z,2.70
2018-10-21T16:41:33.625Z,3.33
2018-10-21T16:46:37.429Z,2.80
2018-10-21T16:51:42.365Z,2.77
2018-10-21T16:56:46.189Z,3.17
2018-10-21T17:01:51.311Z,3.27
2018-10-21T17:06:55.151Z,3.10
2018-10-21T17:11:58.910Z,3.47
2018-10-21T17:17:02.745Z,3.47
2018-10-21T17:22:06.891Z,3.30
2018-10-21T17:27:10.645Z,3.60
2018-10-21T17:32:14.543Z,3.50
2018-10-21T17:37:18.385Z,3.57
2018-10-21T17:42:22.273Z,3.90
2018-10-21T17:47:26.157Z,3.90
2018-10-21T17:52:30.028Z,3.50
2018-10-21T17:57:33.921Z,3.60
2018-10-21T18:02:37.797Z,4.17
2018-10-21T18:07:42.360Z,3.63
2018-10-21T18:12:46.513Z,5.43
2018-10-21T18:17:50.602Z,5.50
2018-10-21T18:22:54.484Z,5.37
2018-10-21T18:27:58.633Z,4.83
2018-10-21T18:33:02.735Z,4.33
2018-10-21T18:38:06.726Z,4.63
2018-10-21T18:43:10.754Z,5.03
2018-10-21T18:48:14.617Z,5.00
2018-10-21T18:53:18.500Z,5.10
2018-10-21T18:58:22.343Z,5.00
2018-10-21T19:03:26.401Z,4.70
2018-10-21T19:08:30.266Z,5.33
2018-10-21T19:13:34.484Z,6.30
2018-10-21T19:18:38.258Z,5.77
2018-10-21T19:23:42.351Z,6.67
2018-10-21T19:28:46.520Z,7.00
2018-10-21T19:33:50.649Z,6.83
2018-10-21T19:38:54.450Z,8.67
2018-10-21T19:43:58.308Z,9.60
2018-10-21T19:49:02.163Z,10.17
2018-10-21T19:54:06.706Z,9.23
2018-10-21T19:59:11.566Z,8.00
2018-10-21T20:04:15.740Z,6.47
2018-10-21T20:09:19.690Z,6.07
2018-10-21T20:14:23.479Z,6.40
2018-10-21T20:19:27.286Z,6.37
2018-10-21T20:24:31.122Z,6.67
2018-10-21T20:29:35.185Z,6.70
2018-10-21T20:34:39.007Z,6.83
2018-10-21T20:39:42.784Z,6.60
2018-10-21T20:44:47.270Z,6.60
2018-10-21T20:49:51.327Z,6.93
2018-10-21T20:54:55.112Z,6.97
2018-10-21T20:59:59.174Z,6.67
2018-10-21T21:05:02.998Z,7.20
2018-10-21T21:10:07.534Z,7.00
2018-10-21T21:15:11.558Z,6.70
2018-10-21T21:20:15.590Z,7.33
2018-10-21T21:25:19.647Z,7.03
2018-10-21T21:30:23.672Z,6.90
2018-10-21T21:35:27.477Z,6.43
2018-10-21T21:40:31.521Z,6.33
2018-10-21T21:45:35.601Z,6.93
2018-10-21T21:50:39.393Z,6.67
2018-10-21T21:55:43.486Z,7.33
2018-10-21T22:00:47.638Z,6.80
2018-10-21T22:05:51.683Z,6.90
2018-10-21T22:11:02.385Z,7.53
2018-10-21T22:16:06.517Z,7.73
2018-10-21T22:21:11.151Z,8.70
2018-10-21T22:26:15.169Z,8.07
2018-10-21T22:31:19.237Z,7.97
2018-10-21T22:36:23.274Z,8.17
2018-10-21T22:41:27.302Z,8.47
2018-10-21T22:46:31.411Z,8.23
2018-10-21T22:51:35.161Z,8.37
2018-10-21T22:56:38.954Z,7.40
2018-10-21T23:01:42.761Z,7.72
2018-10-21T23:06:46.574Z,7.27
2018-10-21T23:11:50.609Z,7.27
2018-10-21T23:16:54.397Z,7.83
2018-10-21T23:21:58.233Z,8.30
2018-10-21T23:27:02.463Z,7.90
2018-10-21T23:32:06.538Z,8.20
2018-10-21T23:37:10.585Z,8.20
2018-10-21T23:42:15.068Z,8.53
2018-10-21T23:47:19.082Z,8.60
2018-10-21T23:52:23.123Z,8.40
2018-10-21T23:57:26.921Z,7.17
